Terminal Aerodrome Forecast
Issued by NWS Lake Charles, LA

Home | Current Version | Previous Version | Text Only | Print | Product List | Glossary On
Versions: 1 2 3 4 5 6 7 8 9 10 11 12 13 14 15 16 17
000
FTUS44 KLCH 241100
TAFLCH
TAF
KLCH 241122Z 2412/2512 VRB04KT 5SM BR FEW030
     FM241400 VRB04KT P6SM SCT035
     FM241700 VRB04KT P6SM VCSH BKN040
     FM250200 00000KT P6SM SCT060 BKN200=

USA.gov is the U.S. government's official web portal to all federal, state and local government web resources and services.